Latest Weather Observations for Sheoaks

IDV60901

Issued at 11:21 am EST Wednesday 25 May 2016 (issued every 10 minutes, with the page automatically refreshed every 10 minutes)

About weather observations | Map of Melbourne area stations | Latest observations for Melbourne area | Other Formats
Station Details ID: 087168 Name: SHEOAKS Lat: -37.91 Lon: 144.13 Height: 236.7 m
Data from the previous 72 hours. | See also: Recent months at Sheoaks
Date/Time
EST
Tmp

°C
App
Tmp
°C
Dew
Point
°C
Rel
Hum
%
Delta-T

°C
Wind Press
QNH
hPa
Press
MSL
hPa
Rain
since
9 am
mm
Dir
 
Spd
km/h
Gust
km/h
Spd
kts
Gust
kts
25/11:00am 14.0 7.3 5.4 56 4.1 NNW 30 50 16 27 1011.0 1011.1 0.0
25/10:40am 13.9 7.2 5.5 57 4.0 N 30 48 16 26 1011.7 1011.7 0.0
25/10:30am 13.8 7.1 5.7 58 3.9 NNW 30 46 16 25 1011.8 1011.8 0.0
25/10:02am 13.5 6.9 6.1 61 3.6 N 30 50 16 27 1012.4 1012.4 0.0
25/10:00am 13.5 6.5 6.1 61 3.6 NNW 32 50 17 27 1012.4 1012.4 0.0
25/09:30am 13.1 6.5 6.2 63 3.3 N 30 43 16 23 1012.7 1012.7 0.0
25/09:00am 12.9 6.9 7.1 68 2.8 N 28 43 15 23 1013.2 1013.2 0.0
25/08:30am 12.6 6.3 7.5 71 2.5 NNW 30 43 16 23 1013.4 1013.5 0.0
25/08:00am 12.6 7.1 7.7 72 2.4 NNW 26 37 14 20 1013.5 1013.6 0.0
25/07:30am 12.3 7.2 7.8 74 2.2 N 24 32 13 17 1013.4 1013.5 0.0
25/07:00am 12.2 7.5 7.7 74 2.2 NNW 22 33 12 18 1013.8 1013.9 0.0
25/06:30am 11.9 7.8 8.0 77 1.9 NNW 19 28 10 15 1014.1 1014.2 0.0
25/06:00am 11.7 7.5 8.4 80 1.6 NNW 20 32 11 17 1014.1 1014.2 0.0
25/05:30am 11.6 8.0 8.5 81 1.5 NNW 17 26 9 14 1014.3 1014.4 0.0
25/05:00am 11.0 7.7 8.2 83 1.4 N 15 22 8 12 1014.5 1014.6 0.0
25/04:30am 10.5 6.8 8.1 85 1.2 NNW 17 26 9 14 1014.7 1014.8 0.0
25/04:00am 9.6 6.5 7.4 86 1.1 N 13 17 7 9 1014.7 1014.8 0.0
25/03:30am 10.5 7.2 8.1 85 1.2 NNW 15 22 8 12 1015.2 1015.3 0.0
25/03:00am 10.0 7.3 7.4 84 1.3 NW 11 15 6 8 1016.0 1016.0 0.0
25/02:30am 9.7 6.9 7.0 83 1.3 NNW 11 17 6 9 1016.2 1016.2 0.0
25/02:00am 9.1 6.3 6.9 86 1.0 NNW 11 17 6 9 1016.4 1016.4 0.0
25/01:30am 7.3 4.6 5.8 90 0.7 N 9 11 5 6 1016.7 1016.7 0.0
25/01:00am 6.8 4.0 5.3 90 0.7 N 9 11 5 6 1017.1 1017.2 0.0
25/12:30am 7.0 4.2 5.3 89 0.8 N 9 11 5 6 1017.5 1017.6 0.0
25/12:00am 6.9 4.1 5.2 89 0.8 N 9 13 5 7 1017.6 1017.7 0.0
 
Date/Time
EST
Tmp

°C
App
Tmp
°C
Dew
Point
°C
Rel
Hum
%
Delta-T

°C
Wind Press
QNH
hPa
Press
MSL
hPa
Rain
since
9 am
mm
Dir
 
Spd
km/h
Gust
km/h
Spd
kts
Gust
kts
24/11:30pm 7.0 4.2 5.3 89 0.8 N 9 9 5 5 1018.0 1018.1 0.0
24/11:00pm 7.2 4.4 5.3 88 0.9 N 9 13 5 7 1018.1 1018.2 0.0
24/10:30pm 7.5 4.4 5.5 87 0.9 N 11 15 6 8 1018.1 1018.2 0.0
24/10:00pm 7.3 4.9 5.4 88 0.9 N 7 7 4 4 1018.7 1018.8 0.0
24/09:30pm 8.2 5.9 5.7 84 1.1 N 7 11 4 6 1018.8 1018.9 0.0
24/09:00pm 8.6 6.0 6.1 84 1.2 N 9 13 5 7 1019.2 1019.3 0.0
24/08:30pm 8.4 6.1 5.9 84 1.2 N 7 7 4 4 1019.5 1019.6 0.0
24/08:00pm 8.4 6.2 6.0 85 1.1 N 7 7 4 4 1019.5 1019.6 0.0
24/07:30pm 8.1 5.8 5.9 86 1.0 NNW 7 7 4 4 1019.6 1019.7 0.0
24/07:00pm 8.0 5.9 5.8 86 1.0 NNW 6 6 3 3 1019.6 1019.7 0.0
24/06:30pm 8.8 6.8 6.3 84 1.2 NNW 6 6 3 3 1019.6 1019.7 0.0
24/06:00pm 9.8 8.2 6.3 79 1.6 NW 4 4 2 2 1019.5 1019.6 0.0
24/05:30pm 11.6 10.1 6.7 72 2.4 NW 4 6 2 3 1019.2 1019.3 0.0
24/05:00pm 12.9 11.5 7.1 68 2.8 W 4 6 2 3 1019.0 1019.1 0.0
24/04:30pm 13.5 11.6 6.8 64 3.3 WSW 6 9 3 5 1019.2 1019.3 0.0
24/04:00pm 13.8 11.4 6.9 63 3.4 W 9 17 5 9 1019.3 1019.4 0.0
24/03:30pm 13.8 11.4 7.1 64 3.3 WSW 9 15 5 8 1019.3 1019.4 0.0
24/03:00pm 13.6 11.2 6.9 64 3.3 WSW 9 17 5 9 1019.2 1019.3 0.0
24/02:30pm 13.4 10.5 6.7 64 3.3 W 11 19 6 10 1019.1 1019.2 0.0
24/02:00pm 13.5 9.8 6.4 62 3.4 W 15 22 8 12 1019.3 1019.4 0.0
24/01:30pm 12.7 9.0 6.5 66 3.0 W 15 24 8 13 1019.6 1019.7 0.0
24/01:00pm 12.5 9.1 6.1 65 3.1 W 13 20 7 11 1019.8 1019.9 0.0
24/12:30pm 12.2 8.2 6.7 69 2.7 W 17 26 9 14 1020.0 1020.1 0.0
24/12:00pm 12.2 7.5 6.0 66 2.9 W 20 32 11 17 1020.5 1020.5 0.0
24/11:30am 12.3 8.0 6.8 69 2.7 W 19 28 10 15 1021.2 1021.3 0.0
24/11:00am 11.9 7.5 6.4 69 2.6 W 19 30 10 16 1021.5 1021.6 0.0
24/10:30am 11.8 7.5 6.9 72 2.4 W 19 26 10 14 1021.7 1021.8 0.0
24/10:00am 11.7 7.4 7.2 74 2.2 W 19 24 10 13 1021.3 1021.4 0.0
24/09:30am 11.0 7.5 7.1 77 1.9 W 15 22 8 12 1021.5 1021.6 0.0
24/09:00am 10.6 7.1 7.3 80 1.6 WNW 15 20 8 11 1021.2 1021.3 2.4
24/08:30am 10.3 6.8 7.4 82 1.4 W 15 24 8 13 1021.2 1021.3 2.4
24/08:00am 9.8 6.8 7.6 86 1.1 WNW 13 19 7 10 1021.0 1021.1 2.4
24/07:30am 9.4 6.3 7.3 87 1.0 WNW 13 22 7 12 1020.6 1020.7 2.4
24/07:00am 9.5 6.0 7.4 87 1.0 W 15 20 8 11 1020.1 1020.2 2.4
24/06:30am 9.6 5.2 7.5 87 1.0 W 20 28 11 15 1019.8 1019.9 2.4
24/06:00am 9.8 6.0 7.6 86 1.1 W 17 24 9 13 1019.6 1019.7 2.4
24/05:30am 10.0 5.8 7.6 85 1.2 W 19 28 10 15 1019.4 1019.5 2.4
24/05:00am 10.1 6.3 7.5 84 1.3 WNW 17 26 9 14 1019.2 1019.3 2.4
24/04:30am 10.2 6.1 7.8 85 1.2 W 19 28 10 15 1019.2 1019.3 2.4
24/04:00am 10.2 5.9 7.8 85 1.2 WNW 20 32 11 17 1019.1 1019.2 2.4
24/03:30am 10.3 6.2 7.7 84 1.3 WNW 19 28 10 15 1019.0 1019.1 2.4
24/03:00am 10.4 4.9 7.6 83 1.4 WNW 26 39 14 21 1018.9 1019.0 2.4
24/02:30am 10.3 5.9 7.5 83 1.4 WNW 20 32 11 17 1018.9 1019.0 2.4
24/02:00am 10.2 6.0 7.4 83 1.3 WNW 19 30 10 16 1018.7 1018.8 2.4
24/01:30am 10.4 6.2 7.5 82 1.4 W 19 28 10 15 1018.8 1018.9 2.4
24/01:00am 10.2 7.3 8.0 86 1.1 W 13 20 7 11 1019.1 1019.2 2.4
24/12:30am 10.0 6.8 8.3 89 0.8 W 15 24 8 13 1019.4 1019.5 2.4
24/12:00am 9.8 7.3 8.4 91 0.7 WNW 11 19 6 10 1019.6 1019.7 2.4
 
Date/Time
EST
Tmp

°C
App
Tmp
°C
Dew
Point
°C
Rel
Hum
%
Delta-T

°C
Wind Press
QNH
hPa
Press
MSL
hPa
Rain
since
9 am
mm
Dir
 
Spd
km/h
Gust
km/h
Spd
kts
Gust
kts
23/11:30pm 10.1 6.1 8.2 88 0.9 W 19 30 10 16 1019.6 1019.7 2.0
23/11:00pm 10.0 6.8 8.3 89 0.8 WNW 15 19 8 10 1019.5 1019.6 2.0
23/10:30pm 10.1 6.5 8.4 89 0.8 WNW 17 22 9 12 1019.5 1019.6 2.0
23/10:00pm 10.2 6.6 8.3 88 0.9 W 17 24 9 13 1019.6 1019.7 2.0
23/09:30pm 10.1 6.9 8.4 89 0.8 WNW 15 22 8 12 1019.5 1019.6 2.0
23/09:00pm 10.0 6.8 8.4 90 0.8 W 15 26 8 14 1019.3 1019.4 2.0
23/08:30pm 9.9 6.8 8.8 93 0.5 WNW 15 26 8 14 1019.0 1019.1 2.0
23/08:00pm 10.1 7.4 9.0 93 0.5 W 13 19 7 10 1018.9 1019.0 2.0
23/07:30pm 10.6 8.3 8.9 89 0.9 WSW 11 20 6 11 1018.9 1019.0 1.2
23/07:00pm 11.0 8.1 8.2 83 1.4 WSW 13 22 7 12 1018.6 1018.7 0.0
23/06:30pm 11.6 7.4 7.5 76 2.0 WNW 19 32 10 17 1018.1 1018.2 0.0
23/06:00pm 11.5 7.2 7.0 74 2.2 WNW 19 33 10 18 1017.8 1017.9 0.0
23/05:30pm 11.8 7.3 7.1 73 2.3 WNW 20 33 11 18 1017.6 1017.7 0.0
23/05:00pm 11.7 7.8 7.2 74 2.2 WNW 17 24 9 13 1017.6 1017.7 0.0
23/04:30pm 11.7 7.4 7.0 73 2.3 WNW 19 26 10 14 1017.6 1017.7 0.0
23/04:00pm 11.3 7.0 7.2 76 2.0 W 19 28 10 15 1017.7 1017.8 0.0
23/03:30pm 11.7 7.1 6.6 71 2.4 W 20 32 11 17 1017.7 1017.8 0.0
23/03:01pm 13.5 6.9 4.1 53 4.3 W 28 48 15 26 1017.0 1017.1 0.0
23/03:00pm 13.5 6.9 4.4 54 4.2 W 28 44 15 24 1017.0 1017.1 0.0
23/02:30pm 13.3 6.8 4.5 55 4.1 W 28 43 15 23 1016.9 1016.9 0.0
23/02:00pm 13.6 7.5 5.0 56 4.0 W 26 43 14 23 1017.0 1017.1 0.0
23/01:30pm 12.6 5.6 4.1 56 3.9 W 30 46 16 25 1017.0 1017.1 0.0
23/01:10pm 13.5 7.1 5.4 58 3.8 W 28 46 15 25 1017.4 1017.5 0.0
23/01:00pm 13.0 5.7 4.7 57 3.9 W 32 46 17 25 1017.3 1017.4 0.0
23/12:30pm 12.7 5.2 4.7 58 3.7 WNW 33 54 18 29 1017.3 1017.4 0.0
23/12:11pm 12.8 6.5 5.5 61 3.5 W 28 48 15 26 1017.4 1017.5 0.0
23/12:00pm 12.5 5.4 5.4 62 3.3 W 32 43 17 23 1017.4 1017.5 0.0
23/11:33am 12.3 5.6 5.7 64 3.1 W 30 54 16 29 1017.6 1017.7 0.0
23/11:30am 12.2 5.1 5.6 64 3.1 W 32 48 17 26 1017.4 1017.5 0.0
23/11:00am 11.9 4.8 5.3 64 3.1 W 32 56 17 30 1017.5 1017.6 0.0
23/10:34am 11.7 5.1 6.0 68 2.7 WNW 30 48 16 26 1017.5 1017.6 0.0
23/10:30am 11.5 4.8 5.8 68 2.7 W 30 46 16 25 1017.5 1017.6 0.0
23/10:06am 11.2 4.5 5.7 69 2.6 W 30 48 16 26 1016.9 1016.9 0.0
23/10:00am 11.1 4.0 5.6 69 2.6 W 32 48 17 26 1016.8 1016.8 0.0
23/09:38am 10.8 4.5 5.8 71 2.3 WNW 28 48 15 26 1016.3 1016.3 0.0
23/09:30am 10.6 4.0 6.0 73 2.2 WNW 30 46 16 25 1016.3 1016.3 0.0
23/09:00am 9.8 3.4 5.4 74 2.0 WNW 28 44 15 24 1015.8 1015.9 4.0
23/08:30am 9.4 2.7 5.8 78 1.7 WNW 30 46 16 25 1015.2 1015.3 4.0
23/08:08am 9.2 2.5 5.6 78 1.7 WNW 30 50 16 27 1014.9 1015.0 4.0
23/08:00am 9.1 2.4 5.8 80 1.5 WNW 30 43 16 23 1014.9 1015.0 4.0
23/07:34am 9.6 3.4 6.0 78 1.7 WNW 28 48 15 26 1015.1 1015.2 3.8
23/07:30am 9.8 3.5 5.6 75 1.9 WNW 28 43 15 23 1014.9 1015.0 3.8
23/07:00am 9.9 3.2 5.7 75 1.9 WNW 30 46 16 25 1014.1 1014.2 3.8
23/06:30am 10.2 0.8 5.4 72 2.2 W 44 67 24 36 1013.2 1013.2 3.8
23/06:00am 11.2 4.2 5.9 70 2.5 WNW 32 54 17 29 1012.6 1012.6 3.8
23/05:30am 11.4 4.2 5.7 68 2.7 WNW 33 54 18 29 1012.4 1012.4 3.8
23/05:10am 11.3 4.7 6.0 70 2.5 NW 30 50 16 27 1012.1 1012.1 3.8
23/05:00am 10.9 5.9 6.5 74 2.1 NW 22 37 12 20 1012.0 1012.0 3.8
23/04:30am 11.0 5.6 6.2 72 2.3 WNW 24 37 13 20 1011.2 1011.3 3.8
23/04:00am 10.9 5.9 8.1 83 1.4 WNW 24 39 13 21 1011.2 1011.3 3.8
23/03:30am 12.1 7.1 8.0 76 2.0 WNW 24 37 13 20 1010.7 1010.8 3.8
23/03:00am 12.1 7.6 8.4 78 1.9 NW 22 35 12 19 1010.5 1010.6 3.6
23/02:30am 12.0 8.2 9.0 82 1.5 NW 19 33 10 18 1010.3 1010.4 3.6
23/02:00am 11.8 8.1 9.5 86 1.2 NW 19 30 10 16 1010.6 1010.7 3.6
23/01:30am 11.9 7.4 8.7 81 1.6 NW 22 33 12 18 1010.6 1010.7 2.4
23/01:02am 12.2 6.4 9.4 83 1.4 WNW 30 50 16 27 1010.4 1010.5 2.0
23/01:00am 12.1 6.3 9.5 84 1.3 WNW 30 48 16 26 1010.3 1010.4 2.0
23/12:41am 14.1 9.4 12.1 88 1.1 WNW 28 57 15 31 1010.6 1010.7 1.0
23/12:30am 14.9 11.5 12.4 85 1.4 NW 22 39 12 21 1010.4 1010.5 0.0
23/12:00am 15.5 12.0 12.1 80 1.9 NW 22 35 12 19 1009.9 1010.0 0.0
 
Date/Time
EST
Tmp

°C
App
Tmp
°C
Dew
Point
°C
Rel
Hum
%
Delta-T

°C
Wind Press
QNH
hPa
Press
MSL
hPa
Rain
since
9 am
mm
Dir
 
Spd
km/h
Gust
km/h
Spd
kts
Gust
kts
22/11:30pm 16.7 12.5 11.2 70 3.0 NW 24 35 13 19 1009.5 1009.5 0.0
22/11:00pm 16.9 13.3 10.5 66 3.5 NNW 20 33 11 18 1009.5 1009.5 0.0
22/10:30pm 17.8 13.6 9.9 60 4.2 NNW 22 37 12 20 1009.5 1009.5 0.0
22/10:00pm 18.7 13.7 9.5 55 4.9 N 26 41 14 22 1009.3 1009.3 0.0
22/09:30pm 19.6 14.5 9.2 51 5.5 NNW 26 44 14 24 1010.2 1010.3 0.0
22/09:00pm 18.3 15.5 9.9 58 4.5 N 15 20 8 11 1010.7 1010.8 0.0
22/08:30pm 18.5 15.0 10.1 58 4.5 N 19 32 10 17 1010.7 1010.8 0.0
22/08:00pm 18.5 14.0 10.1 58 4.5 NNE 24 37 13 20 1010.8 1010.9 0.0
22/07:30pm 18.4 13.1 10.0 58 4.5 N 28 44 15 24 1010.8 1010.9 0.0
22/07:00pm 18.6 13.0 10.2 58 4.5 N 30 44 16 24 1010.8 1010.9 0.0
22/06:30pm 18.4 12.4 10.0 58 4.5 N 32 46 17 25 1010.8 1010.9 0.0
22/06:00pm 18.8 13.0 9.3 54 5.1 N 30 43 16 23 1010.9 1011.0 0.0
22/05:34pm 19.0 12.8 9.2 53 5.2 N 32 52 17 28 1010.9 1011.0 0.0
22/05:30pm 19.3 12.4 8.9 51 5.5 N 35 52 19 28 1010.6 1010.7 0.0
22/05:20pm 19.2 12.9 9.1 52 5.4 N 32 52 17 28 1010.6 1010.7 0.0
22/05:00pm 19.3 13.7 8.6 50 5.6 N 28 43 15 23 1010.7 1010.8 0.0
22/04:30pm 19.7 12.8 8.7 49 5.8 NNW 35 48 19 26 1010.5 1010.6 0.0
22/04:00pm 20.1 12.3 8.1 46 6.3 NNW 39 67 21 36 1010.4 1010.5 0.0
22/03:30pm 20.7 11.9 8.0 44 6.7 NNW 44 72 24 39 1009.9 1010.0 0.0
22/03:00pm 20.8 11.8 7.4 42 7.0 N 44 67 24 36 1009.3 1009.3 0.0
22/02:30pm 20.6 13.1 7.9 44 6.7 N 37 65 20 35 1010.1 1010.2 0.0
22/02:00pm 19.9 12.8 7.9 46 6.3 N 35 61 19 33 1010.8 1010.9 0.0
22/01:30pm 19.8 13.8 7.2 44 6.5 N 28 57 15 31 1011.7 1011.7 0.0
22/01:00pm 20.5 15.3 5.7 38 7.4 NNW 22 39 12 21 1012.7 1012.7 0.0
22/12:41pm 19.8 13.5 5.8 40 7.0 NNW 28 48 15 26 1012.8 1012.8 0.0
22/12:30pm 19.4 14.4 6.5 43 6.5 N 22 33 12 18 1012.9 1012.9 0.0
22/12:00pm 18.8 14.8 6.6 45 6.2 NNW 17 28 9 15 1013.6 1013.7 0.0
22/11:30am 18.3 14.0 6.8 47 5.8 N 19 28 10 15 1014.0 1014.1 0.0

Latest Capital City Observations: Canberra | Sydney | Melbourne | Brisbane | Adelaide | Perth | Hobart | Darwin

Other Formats:

Comma delimited format used in spreadsheet applications
http://www.bom.gov.au/fwo/IDV60901/IDV60901.94863.axf

JavaScript Object Notation format (JSON) in row-major order
http://www.bom.gov.au/fwo/IDV60901/IDV60901.94863.json